Time;durP1;ratioP1;P1;durP2;ratioP2;P2;SDS_P1;SDS_P2;PMS_P1;PMS_P2;Temp;Humidity;BMP_temperature;BMP_pressure;BME280_temperature;BME280_humidity;BME280_pressure;Samples;Min_cycle;Max_cycle;Signal;HPM_P1;HPM_P2
2022/09/08 00:00:44;;;;;;;8.43;5.53;;;17.90;99.90;;;;;;4994449;28;20053;-70
2022/09/08 00:03:13;;;;;;;8.07;6.17;;;17.90;99.90;;;;;;4994261;28;20050;-70
2022/09/08 00:06:07;;;;;;;7.30;6.37;;;17.90;99.90;;;;;;4994211;28;20501;-70
2022/09/08 00:08:34;;;;;;;9.33;7.10;;;17.90;99.90;;;;;;4990398;28;20062;-70
2022/09/08 00:11:03;;;;;;;10.07;7.40;;;17.90;99.90;;;;;;4993689;28;20053;-70
2022/09/08 00:13:32;;;;;;;9.70;7.20;;;17.90;99.90;;;;;;4994247;28;20046;-70
2022/09/08 00:16:01;;;;;;;9.20;7.90;;;17.90;99.90;;;;;;4994154;28;20046;-70
2022/09/08 00:18:28;;;;;;;10.57;7.50;;;17.90;99.90;;;;;;4993825;28;20043;-70
2022/09/08 00:20:53;;;;;;;9.57;8.10;;;18.00;99.90;;;;;;4994651;28;20445;-70
2022/09/08 00:23:19;;;;;;;8.73;7.80;;;18.00;99.90;;;;;;4992901;28;20113;-70
2022/09/08 00:25:46;;;;;;;11.50;8.57;;;18.00;99.90;;;;;;4994876;28;20069;-70
2022/09/08 00:28:12;;;;;;;9.97;8.70;;;17.90;99.90;;;;;;4994075;28;20065;-70
2022/09/08 00:30:38;;;;;;;11.87;8.63;;;17.90;99.90;;;;;;4994670;28;20042;-70
2022/09/08 00:33:04;;;;;;;11.80;9.83;;;18.00;99.90;;;;;;4993974;28;20486;-70
2022/09/08 00:35:29;;;;;;;11.93;9.73;;;18.00;99.90;;;;;;4994442;28;20108;-70
2022/09/08 00:37:55;;;;;;;11.67;9.50;;;18.00;99.90;;;;;;4992762;28;20434;-70
2022/09/08 00:40:23;;;;;;;12.17;9.07;;;17.90;99.90;;;;;;4994405;28;20129;-70
2022/09/08 00:43:04;;;;;;;14.50;10.23;;;17.90;99.90;;;;;;4993938;28;20109;-70
2022/09/08 00:45:37;;;;;;;13.20;10.53;;;17.90;99.90;;;;;;4994306;28;20050;-70
2022/09/08 00:48:07;;;;;;;12.13;10.87;;;17.80;99.90;;;;;;4993922;28;20046;-70
2022/09/08 00:50:33;;;;;;;13.67;11.20;;;17.80;99.90;;;;;;4994342;28;20057;-70
2022/09/08 00:53:03;;;;;;;12.37;10.70;;;17.80;99.90;;;;;;4993823;28;20042;-70
2022/09/08 00:55:35;;;;;;;12.73;11.43;;;17.80;99.90;;;;;;4993559;28;20042;-70
2022/09/08 00:58:02;;;;;;;14.33;12.83;;;17.70;99.90;;;;;;4994579;28;20046;-70
2022/09/08 01:00:28;;;;;;;15.00;11.87;;;17.70;99.90;;;;;;4993250;28;20371;-70
2022/09/08 01:02:54;;;;;;;15.13;13.53;;;17.70;99.90;;;;;;4993489;28;20062;-70
2022/09/08 01:05:25;;;;;;;15.10;13.50;;;17.80;99.90;;;;;;4993339;28;20571;-70
2022/09/08 01:14:13;;;;;;;16.70;15.03;;;17.70;99.90;;;;;;4997825;28;20491;-70
2022/09/08 01:16:43;;;;;;;18.07;15.00;;;17.60;99.90;;;;;;4996753;28;20050;-70
2022/09/08 01:19:26;;;;;;;17.50;15.80;;;17.70;99.90;;;;;;4997135;28;20471;-70
2022/09/08 01:22:13;;;;;;;18.10;16.20;;;17.70;99.90;;;;;;4996984;28;20609;-70
2022/09/08 01:25:04;;;;;;;18.77;16.87;;;17.70;99.90;;;;;;4997488;28;20460;-70
2022/09/08 01:27:31;;;;;;;19.33;17.37;;;17.70;99.90;;;;;;4998064;28;20165;-70
2022/09/08 01:30:06;;;;;;;20.67;18.67;;;17.80;99.90;;;;;;4996250;28;20074;-70
2022/09/08 01:32:35;;;;;;;20.33;18.43;;;17.80;99.90;;;;;;4997736;28;20064;-70
2022/09/08 01:35:01;;;;;;;20.33;18.43;;;17.70;99.90;;;;;;4995902;28;20046;-70
2022/09/08 01:37:27;;;;;;;19.43;17.63;;;17.80;99.90;;;;;;4997030;28;20057;-70
2022/09/08 01:39:53;;;;;;;21.43;19.40;;;17.80;99.90;;;;;;4997052;28;20042;-70
2022/09/08 01:42:19;;;;;;;20.90;18.90;;;17.80;99.90;;;;;;4996965;28;20061;-70
2022/09/08 01:44:45;;;;;;;23.50;21.20;;;17.80;99.90;;;;;;4996985;28;20054;-70
2022/09/08 01:47:11;;;;;;;23.37;21.07;;;17.80;99.90;;;;;;4996944;28;20050;-70
2022/09/08 01:49:37;;;;;;;23.07;20.87;;;17.80;99.90;;;;;;4996883;28;20046;-70
2022/09/08 01:52:03;;;;;;;20.97;19.17;;;17.70;99.90;;;;;;4996802;28;20050;-70
2022/09/08 01:54:28;;;;;;;22.10;20.10;;;17.70;99.90;;;;;;4995611;28;20129;-70
2022/09/08 01:56:55;;;;;;;23.53;21.33;;;17.70;99.90;;;;;;4995742;28;20089;-70
2022/09/08 01:59:22;;;;;;;23.70;21.27;;;17.80;99.90;;;;;;4996649;28;20089;-71
2022/09/08 02:01:48;;;;;;;24.93;22.53;;;17.80;99.90;;;;;;4996317;28;20081;-70
2022/09/08 02:04:14;;;;;;;23.30;20.97;;;17.80;99.90;;;;;;4996651;28;20047;-70
2022/09/08 02:06:40;;;;;;;23.70;21.67;;;17.80;99.90;;;;;;4996468;28;20049;-70
2022/09/08 02:09:05;;;;;;;26.27;23.83;;;17.80;99.90;;;;;;4996565;28;20046;-70
2022/09/08 02:11:31;;;;;;;26.07;23.53;;;17.90;99.90;;;;;;4996533;28;20133;-70
2022/09/08 02:13:58;;;;;;;24.20;22.03;;;17.80;99.90;;;;;;4995311;28;20046;-70
2022/09/08 02:16:25;;;;;;;25.87;23.37;;;17.80;99.90;;;;;;4996665;28;20046;-70
2022/09/08 02:18:53;;;;;;;24.87;22.47;;;17.80;99.90;;;;;;4995910;28;20128;-70
2022/09/08 02:21:20;;;;;;;26.40;23.90;;;17.80;99.90;;;;;;4996352;28;20160;-70
2022/09/08 02:23:48;;;;;;;26.03;23.53;;;17.80;99.90;;;;;;4997169;28;20483;-70
2022/09/08 02:26:20;;;;;;;25.73;23.33;;;17.90;99.90;;;;;;4996618;28;20386;-70
2022/09/08 02:28:47;;;;;;;27.03;24.63;;;17.80;99.90;;;;;;4997230;28;20052;-70
2022/09/08 02:31:13;;;;;;;26.13;23.47;;;17.80;99.90;;;;;;4996162;28;20129;-70
2022/09/08 02:33:40;;;;;;;25.97;23.57;;;17.80;99.90;;;;;;4996073;28;20046;-70
2022/09/08 02:36:06;;;;;;;25.10;22.67;;;17.80;99.90;;;;;;4996640;28;20050;-70
2022/09/08 02:38:33;;;;;;;25.90;23.60;;;17.80;99.90;;;;;;4996820;28;20100;-70
2022/09/08 02:40:59;;;;;;;26.87;24.57;;;17.90;99.90;;;;;;4996737;28;20042;-70
2022/09/08 02:43:26;;;;;;;25.60;23.33;;;17.90;99.90;;;;;;4995928;28;20096;-71
2022/09/08 02:45:52;;;;;;;26.13;23.87;;;17.90;99.90;;;;;;4996305;28;20430;-70
2022/09/08 02:48:18;;;;;;;28.07;25.43;;;17.90;99.90;;;;;;4995145;28;20129;-70
2022/09/08 02:50:43;;;;;;;27.50;24.93;;;17.90;99.90;;;;;;4995553;28;20145;-70
2022/09/08 02:53:09;;;;;;;25.73;23.40;;;17.90;99.90;;;;;;4994611;28;20039;-70
2022/09/08 02:55:42;;;;;;;27.07;24.60;;;17.90;99.90;;;;;;4995371;28;20050;-70
2022/09/08 02:58:10;;;;;;;27.23;24.57;;;17.90;99.90;;;;;;4995630;28;20057;-70
2022/09/08 03:00:38;;;;;;;29.87;27.07;;;17.90;99.90;;;;;;4996108;28;20049;-70
2022/09/08 03:03:04;;;;;;;26.20;23.90;;;17.90;99.90;;;;;;4996067;28;20050;-70
2022/09/08 03:05:30;;;;;;;28.03;25.63;;;17.90;99.90;;;;;;4995432;28;20042;-71
2022/09/08 03:07:58;;;;;;;28.83;25.80;;;17.90;99.90;;;;;;4995475;28;20097;-70
2022/09/08 03:10:24;;;;;;;30.07;27.40;;;17.90;99.90;;;;;;4995186;28;20054;-70
2022/09/08 03:12:54;;;;;;;27.47;25.00;;;17.90;99.90;;;;;;4996098;28;20393;-70
2022/09/08 03:15:21;;;;;;;28.13;25.70;;;17.90;99.90;;;;;;4994355;28;20065;-70
2022/09/08 03:17:47;;;;;;;28.97;26.37;;;17.90;99.90;;;;;;4995269;28;20060;-70
2022/09/08 03:20:14;;;;;;;29.47;26.73;;;17.90;99.90;;;;;;4995220;28;20050;-70
2022/09/08 03:22:40;;;;;;;29.23;26.73;;;17.90;99.90;;;;;;4995428;28;20165;-70
2022/09/08 03:25:06;;;;;;;30.60;27.90;;;17.90;99.90;;;;;;4994955;28;20447;-70
2022/09/08 03:27:32;;;;;;;30.03;27.23;;;17.90;99.90;;;;;;4994009;28;20054;-70
2022/09/08 03:29:58;;;;;;;31.90;28.93;;;17.90;99.90;;;;;;4994903;28;20100;-70
2022/09/08 03:32:23;;;;;;;30.03;27.13;;;17.90;99.90;;;;;;4994999;28;20042;-70
2022/09/08 03:34:49;;;;;;;29.87;27.30;;;17.90;99.90;;;;;;4994946;28;20046;-70
2022/09/08 03:37:15;;;;;;;30.23;27.40;;;17.90;99.90;;;;;;4994924;28;20042;-70
2022/09/08 03:39:41;;;;;;;30.80;28.10;;;17.90;99.90;;;;;;4994879;28;20466;-70
2022/09/08 03:42:07;;;;;;;29.87;27.17;;;17.90;99.90;;;;;;4994556;28;20134;-70
2022/09/08 03:44:33;;;;;;;32.00;28.90;;;18.00;99.90;;;;;;4995021;28;20046;-70
2022/09/08 03:46:59;;;;;;;31.63;28.63;;;18.00;99.90;;;;;;4994960;28;20042;-70
2022/09/08 03:49:25;;;;;;;29.40;26.73;;;18.00;99.90;;;;;;4995238;28;20046;-70
2022/09/08 03:51:52;;;;;;;31.50;28.60;;;18.00;99.90;;;;;;4993924;28;20127;-70
2022/09/08 03:57:02;;;;;;;31.58;28.70;;;18.00;99.90;;;;;;4995186;28;20050;-70
2022/09/08 03:59:29;;;;;;;31.27;28.57;;;18.00;99.90;;;;;;4995041;28;20056;-70
2022/09/08 04:01:56;;;;;;;31.60;28.83;;;18.00;99.90;;;;;;4995236;28;20465;-70
2022/09/08 04:04:23;;;;;;;31.03;28.27;;;18.00;99.90;;;;;;4994400;28;20050;-70
2022/09/08 04:06:49;;;;;;;31.90;28.90;;;18.00;99.90;;;;;;4994812;28;20041;-70
2022/09/08 04:09:16;;;;;;;31.23;28.57;;;18.00;99.90;;;;;;4994365;28;20050;-70
2022/09/08 04:11:41;;;;;;;34.00;31.00;;;18.10;99.90;;;;;;4995059;28;20089;-70
2022/09/08 04:14:07;;;;;;;32.43;29.63;;;18.10;99.90;;;;;;4994250;28;20398;-70
2022/09/08 04:16:33;;;;;;;35.00;31.80;;;18.10;99.90;;;;;;4993030;28;20046;-70
2022/09/08 04:18:59;;;;;;;34.03;30.90;;;18.10;99.90;;;;;;4994180;28;20050;-70
2022/09/08 04:21:25;;;;;;;38.03;34.43;;;18.10;99.90;;;;;;4994718;28;20050;-70
2022/09/08 04:23:50;;;;;;;36.17;32.97;;;18.10;99.90;;;;;;4992502;28;20058;-70
2022/09/08 04:26:16;;;;;;;32.53;29.47;;;18.10;99.90;;;;;;4994296;28;20069;-70
2022/09/08 04:28:42;;;;;;;33.93;30.83;;;18.10;99.90;;;;;;4994548;28;20050;-70
2022/09/08 04:31:11;;;;;;;34.30;31.20;;;18.00;99.90;;;;;;4994847;28;20051;-70
2022/09/08 04:33:37;;;;;;;35.47;32.27;;;18.00;99.90;;;;;;4994535;28;20058;-69
2022/09/08 04:36:21;;;;;;;31.20;28.40;;;18.00;99.90;;;;;;4994353;28;20088;-69
2022/09/08 04:38:47;;;;;;;33.27;30.17;;;18.00;99.90;;;;;;4994066;28;20093;-69
2022/09/08 04:41:15;;;;;;;32.67;29.50;;;18.00;99.90;;;;;;4992469;28;20053;-69
2022/09/08 04:43:42;;;;;;;29.07;26.27;;;18.00;99.90;;;;;;4993944;28;20499;-70
2022/09/08 04:46:11;;;;;;;31.57;28.43;;;17.90;99.90;;;;;;4993869;28;20550;-69
2022/09/08 04:48:38;;;;;;;30.27;27.47;;;17.90;99.90;;;;;;4994359;28;20058;-69
2022/09/08 04:51:05;;;;;;;31.13;28.23;;;17.90;99.90;;;;;;4993875;28;20057;-69
2022/09/08 04:53:33;;;;;;;30.43;27.63;;;17.90;99.90;;;;;;4993873;28;20057;-69
2022/09/08 04:56:01;;;;;;;30.07;27.43;;;17.90;99.90;;;;;;4993798;28;20086;-69
2022/09/08 04:58:29;;;;;;;27.23;24.57;;;17.80;99.90;;;;;;4993773;28;20097;-69
2022/09/08 05:01:06;;;;;;;25.80;23.30;;;17.80;99.90;;;;;;4992543;28;20047;-69
2022/09/08 05:03:32;;;;;;;25.13;22.83;;;17.80;99.90;;;;;;4992922;28;20570;-69
2022/09/08 05:06:07;;;;;;;24.40;22.20;;;17.80;99.90;;;;;;4994215;28;20053;-69
2022/09/08 05:08:33;;;;;;;25.35;22.88;;;17.80;99.90;;;;;;4994377;28;20054;-69
2022/09/08 05:11:00;;;;;;;25.67;23.40;;;17.80;99.90;;;;;;4993718;28;20562;-69
2022/09/08 05:13:26;;;;;;;25.53;23.13;;;17.80;99.90;;;;;;4993681;28;20042;-69
2022/09/08 05:15:52;;;;;;;27.50;24.90;;;17.80;99.90;;;;;;4993654;28;20101;-69
2022/09/08 05:18:18;;;;;;;26.33;23.70;;;17.90;99.90;;;;;;4993411;28;20046;-69
2022/09/08 05:20:43;;;;;;;28.33;25.50;;;17.90;99.90;;;;;;4993642;28;20054;-69
2022/09/08 05:23:09;;;;;;;25.57;23.17;;;17.90;99.90;;;;;;4994346;28;20429;-69
2022/09/08 05:25:35;;;;;;;26.40;23.83;;;18.00;99.90;;;;;;4994149;28;20057;-69
2022/09/08 05:28:01;;;;;;;27.63;25.00;;;18.00;99.90;;;;;;4993596;28;20491;-69
2022/09/08 05:30:26;;;;;;;28.40;25.50;;;18.00;99.90;;;;;;4993486;28;20050;-69
2022/09/08 05:32:52;;;;;;;30.10;27.27;;;18.10;99.90;;;;;;4993535;28;20497;-69
2022/09/08 05:35:18;;;;;;;29.23;26.13;;;18.10;99.90;;;;;;4992386;28;20129;-69
2022/09/08 05:37:43;;;;;;;30.77;27.97;;;18.10;99.90;;;;;;4993510;28;20050;-69
2022/09/08 05:40:09;;;;;;;30.20;27.30;;;18.10;99.90;;;;;;4993469;28;20125;-70
2022/09/08 05:42:35;;;;;;;35.57;32.30;;;18.00;99.90;;;;;;4993705;28;20042;-70
2022/09/08 05:45:01;;;;;;;35.43;31.93;;;18.10;99.90;;;;;;4993360;28;20046;-70
2022/09/08 05:47:26;;;;;;;33.00;30.00;;;18.10;99.90;;;;;;4993378;28;20420;-70
2022/09/08 05:49:52;;;;;;;33.83;30.67;;;18.10;99.90;;;;;;4992173;28;20462;-70
2022/09/08 05:52:18;;;;;;;37.17;33.83;;;18.10;99.90;;;;;;4993396;28;20085;-70
2022/09/08 05:54:44;;;;;;;31.87;29.07;;;18.10;99.90;;;;;;4996046;28;20089;-70
2022/09/08 05:57:09;;;;;;;31.43;28.53;;;18.10;99.90;;;;;;4996788;28;20042;-70
2022/09/08 05:59:35;;;;;;;28.67;25.57;;;18.00;99.90;;;;;;4996834;28;20057;-70
2022/09/08 06:02:01;;;;;;;28.70;26.07;;;18.00;99.90;;;;;;4996758;28;20082;-70
2022/09/08 06:04:27;;;;;;;30.00;26.93;;;18.00;99.90;;;;;;4997318;28;20430;-70
2022/09/08 06:06:52;;;;;;;34.07;30.53;;;17.90;99.90;;;;;;4995490;28;20371;-70
2022/09/08 06:09:18;;;;;;;32.33;29.20;;;17.90;99.90;;;;;;4996681;28;20104;-69
2022/09/08 06:11:44;;;;;;;45.07;36.60;;;17.90;99.90;;;;;;4997492;28;20104;-70
2022/09/08 06:14:10;;;;;;;46.40;39.93;;;17.80;99.90;;;;;;4996702;28;20057;-71
2022/09/08 06:16:36;;;;;;;52.50;41.07;;;17.60;99.90;;;;;;4995659;28;20054;-71
2022/09/08 06:19:02;;;;;;;59.53;46.77;;;17.50;99.90;;;;;;4996753;28;20509;-70
2022/09/08 06:21:33;;;;;;;63.17;46.80;;;17.40;99.90;;;;;;4996538;28;20093;-71
2022/09/08 06:24:02;;;;;;;50.70;42.17;;;17.40;99.90;;;;;;4995227;28;20058;-71
2022/09/08 06:27:00;;;;;;;57.20;45.77;;;17.30;99.90;;;;;;4996421;28;20042;-70
2022/09/08 06:29:44;;;;;;;55.43;48.00;;;17.30;99.90;;;;;;4996014;28;20046;-71
2022/09/08 06:32:24;;;;;;;55.50;44.90;;;17.20;99.90;;;;;;4995176;28;20141;-71
2022/09/08 06:35:01;;;;;;;93.07;53.03;;;17.20;99.90;;;;;;4996309;28;20482;-70
2022/09/08 06:37:30;;;;;;;85.83;56.90;;;17.20;99.90;;;;;;4995967;28;20483;-71
2022/09/08 06:40:16;;;;;;;89.30;60.67;;;17.20;99.90;;;;;;4995152;28;20093;-71
2022/09/08 06:43:20;;;;;;;106.23;57.53;;;17.20;99.90;;;;;;4996162;28;20069;-71
2022/09/08 06:45:50;;;;;;;106.90;62.30;;;17.20;99.90;;;;;;4992716;28;20065;-72
2022/09/08 06:48:36;;;;;;;94.93;59.30;;;17.20;99.90;;;;;;4996009;28;20054;-73
2022/09/08 06:51:20;;;;;;;228.67;79.53;;;17.20;99.90;;;;;;4996027;28;20117;-75
2022/09/08 06:54:05;;;;;;;172.50;76.00;;;17.20;99.90;;;;;;4996475;28;20442;-76
2022/09/08 06:56:56;;;;;;;245.33;90.70;;;17.10;99.90;;;;;;4996425;28;20054;-77
2022/09/08 06:59:49;;;;;;;539.50;125.17;;;17.10;99.90;;;;;;4995812;28;20093;-77
2022/09/08 07:02:56;;;;;;;463.63;115.37;;;17.10;99.90;;;;;;4996593;28;20112;-77
2022/09/08 07:05:39;;;;;;;212.27;90.43;;;17.30;99.90;;;;;;4973516;28;20055;-80
2022/09/08 07:08:32;;;;;;;185.83;88.27;;;17.20;99.90;;;;;;4994635;28;20056;-74
2022/09/08 07:11:19;;;;;;;137.67;71.33;;;17.20;99.90;;;;;;4994730;28;20062;-76
2022/09/08 07:13:56;;;;;;;142.13;75.13;;;17.10;99.90;;;;;;4995934;28;20093;-75
2022/09/08 07:16:43;;;;;;;174.37;78.23;;;17.10;99.90;;;;;;4995568;28;20054;-77
2022/09/08 07:19:44;;;;;;;272.93;95.37;;;17.10;99.90;;;;;;4995486;28;20038;-74
2022/09/08 07:22:31;;;;;;;267.43;96.40;;;17.10;99.90;;;;;;4962357;28;20058;-74
2022/09/08 07:25:18;;;;;;;149.30;67.73;;;17.10;99.90;;;;;;4995246;28;20461;-74
2022/09/08 07:27:48;;;;;;;145.87;64.43;;;17.10;99.90;;;;;;4995161;28;20058;-72
2022/09/08 07:30:17;;;;;;;136.27;62.50;;;17.00;99.90;;;;;;4995975;28;20042;-73
2022/09/08 07:32:47;;;;;;;178.73;65.43;;;17.10;99.90;;;;;;4995976;28;20054;-74
2022/09/08 07:35:34;;;;;;;274.57;74.33;;;17.10;99.90;;;;;;4995714;28;20379;-74
2022/09/08 07:38:05;;;;;;;274.77;77.87;;;17.20;99.90;;;;;;4974378;28;20070;-75
2022/09/08 07:40:40;;;;;;;460.00;95.37;;;17.30;99.90;;;;;;4995630;28;20456;-74
2022/09/08 07:43:14;;;;;;;81.80;46.10;;;17.30;99.90;;;;;;4994996;28;20054;-74
2022/09/08 07:45:57;;;;;;;109.30;51.15;;;17.30;99.90;;;;;;4994887;28;20096;-74
2022/09/08 07:48:26;;;;;;;348.50;88.60;;;17.30;99.90;;;;;;4994891;28;20049;-74
2022/09/08 07:51:10;;;;;;;176.97;64.30;;;17.30;99.90;;;;;;4995119;28;20104;-75
2022/09/08 07:54:26;;;;;;;396.50;90.83;;;17.40;99.90;;;;;;4995122;28;20121;-75
2022/09/08 07:57:00;;;;;;;510.88;109.03;;;17.50;99.90;;;;;;4973188;28;20531;-75
2022/09/08 07:59:45;;;;;;;676.88;115.47;;;17.50;99.90;;;;;;4973567;28;20042;-73
2022/09/08 08:02:44;;;;;;;249.80;72.70;;;17.40;99.90;;;;;;4988688;28;20058;-74
2022/09/08 08:05:41;;;;;;;524.20;107.77;;;17.50;99.90;;;;;;4995045;28;20043;-74
2022/09/08 08:08:16;;;;;;;22.00;17.03;;;17.40;99.90;;;;;;4994565;28;20101;-74
2022/09/08 08:11:00;;;;;;;33.55;21.85;;;17.20;99.90;;;;;;4994582;28;20073;-74
2022/09/08 08:13:38;;;;;;;42.93;20.83;;;17.00;99.90;;;;;;4995115;28;20120;-73
2022/09/08 08:16:13;;;;;;;39.90;18.10;;;17.00;99.90;;;;;;4994225;28;20050;-74
2022/09/08 08:18:54;;;;;;;21.23;10.70;;;16.90;99.90;;;;;;4994379;28;20042;-73
2022/09/08 08:21:30;;;;;;;48.83;14.30;;;16.90;99.90;;;;;;4993417;28;20078;-74
2022/09/08 08:24:05;;;;;;;17.23;7.20;;;16.90;99.90;;;;;;4995408;28;20066;-74
2022/09/08 08:26:49;;;;;;;;;;;16.90;99.90;;;;;;4995539;28;20046;-74
2022/09/08 08:30:11;;;;;;;16.60;5.17;;;16.90;99.90;;;;;;4994254;28;19944;-73
2022/09/08 08:33:01;;;;;;;31.63;6.73;;;16.90;99.90;;;;;;4967807;28;20495;-77
2022/09/08 08:35:37;;;;;;;25.67;7.00;;;16.80;99.90;;;;;;4994227;28;20042;-73
2022/09/08 08:38:04;;;;;;;17.07;5.10;;;16.80;99.90;;;;;;4994735;28;20057;-75
2022/09/08 08:40:58;;;;;;;30.83;8.50;;;16.80;99.90;;;;;;4994852;28;20042;-74
2022/09/08 08:43:39;;;;;;;13.53;4.30;;;16.80;99.90;;;;;;4994188;28;20046;-74
2022/09/08 08:46:24;;;;;;;9.93;4.20;;;16.70;99.90;;;;;;4993964;28;20050;-74
2022/09/08 08:49:19;;;;;;;15.40;5.37;;;16.80;99.90;;;;;;4994114;28;20081;-75
2022/09/08 08:52:07;;;;;;;9.95;4.07;;;16.80;99.90;;;;;;4994408;28;20549;-73
2022/09/08 08:54:46;;;;;;;6.63;3.63;;;16.70;99.90;;;;;;4993968;28;20395;-74
2022/09/08 08:57:39;;;;;;;9.30;3.93;;;16.60;99.90;;;;;;4994037;28;20057;-74
2022/09/08 09:00:22;;;;;;;8.87;4.40;;;16.60;99.90;;;;;;4976514;28;20193;-73
2022/09/08 09:03:10;;;;;;;22.40;7.47;;;16.50;99.90;;;;;;4993925;28;20050;-74
2022/09/08 09:06:03;;;;;;;30.37;8.13;;;16.50;99.90;;;;;;4994085;28;20086;-74
2022/09/08 09:08:32;;;;;;;15.20;5.93;;;16.60;99.90;;;;;;4994085;28;20478;-77
2022/09/08 09:11:30;;;;;;;10.23;4.93;;;16.60;99.90;;;;;;4993895;28;20125;-75
2022/09/08 09:14:04;;;;;;;20.27;7.00;;;16.60;99.90;;;;;;4968558;28;20056;-75
2022/09/08 09:16:59;;;;;;;15.05;7.57;;;16.60;99.90;;;;;;4994086;28;20581;-75
2022/09/08 09:20:03;;;;;;;13.17;6.13;;;16.70;99.90;;;;;;4993377;28;20367;-75
2022/09/08 09:22:32;;;;;;;21.03;8.70;;;16.70;99.90;;;;;;4993462;28;20100;-75
2022/09/08 09:25:19;;;;;;;12.83;6.37;;;16.70;99.90;;;;;;4993606;28;20161;-74
2022/09/08 09:27:59;;;;;;;27.77;10.63;;;16.70;99.90;;;;;;4994863;28;20082;-74
2022/09/08 09:30:53;;;;;;;15.53;6.23;;;16.70;99.90;;;;;;4997404;28;20466;-75
2022/09/08 09:33:40;;;;;;;12.50;6.00;;;16.80;99.90;;;;;;4989112;28;20054;-74
2022/09/08 09:36:23;;;;;;;11.57;6.00;;;16.80;99.90;;;;;;4997939;28;20154;-76
2022/09/08 09:39:11;;;;;;;7.27;4.53;;;16.80;99.90;;;;;;4998088;28;20069;-78
2022/09/08 09:41:41;;;;;;;25.50;8.57;;;16.80;99.90;;;;;;4997491;28;20042;-78
2022/09/08 09:44:30;;;;;;;12.27;5.60;;;16.80;99.90;;;;;;4997079;28;20378;-80
2022/09/08 09:47:19;;;;;;;11.90;6.43;;;16.90;99.90;;;;;;4967355;28;20101;-76
2022/09/08 09:50:21;;;;;;;8.80;5.70;;;16.80;99.90;;;;;;4996242;28;20058;-78
2022/09/08 09:53:09;;;;;;;22.50;8.30;;;16.80;99.90;;;;;;4996013;28;20089;-78
2022/09/08 09:56:11;;;;;;;12.10;7.13;;;16.80;99.90;;;;;;4996276;28;20054;-80
2022/09/08 09:58:56;;;;;;;13.27;8.30;;;16.80;99.90;;;;;;4996250;28;20053;-82
2022/09/08 10:01:52;;;;;;;12.40;7.85;;;16.90;99.90;;;;;;4996427;28;20054;-74
2022/09/08 10:04:51;;;;;;;9.70;7.60;;;16.90;99.90;;;;;;4996316;28;20148;-78
2022/09/08 10:07:23;;;;;;;13.23;8.13;;;16.90;99.90;;;;;;4996680;28;20129;-78
2022/09/08 10:10:01;;;;;;;12.03;7.90;;;17.00;99.90;;;;;;4995534;28;20403;-77
2022/09/08 10:12:52;;;;;;;13.87;8.50;;;17.00;99.90;;;;;;4996357;28;20062;-73
2022/09/08 10:15:25;;;;;;;20.00;9.17;;;17.00;99.90;;;;;;4995822;28;20479;-71
2022/09/08 10:18:08;;;;;;;10.07;7.07;;;17.00;99.90;;;;;;4994782;28;20061;-72
2022/09/08 10:20:56;;;;;;;21.70;10.60;;;17.00;99.90;;;;;;4995641;28;20138;-73
2022/09/08 10:23:41;;;;;;;15.03;9.40;;;17.00;99.90;;;;;;4994599;28;20137;-74
2022/09/08 10:26:32;;;;;;;19.52;11.27;;;17.00;99.90;;;;;;4994265;28;20134;-74
2022/09/08 10:29:42;;;;;;;14.23;9.60;;;17.00;99.90;;;;;;4995649;28;20058;-74
2022/09/08 10:32:29;;;;;;;15.57;9.87;;;17.10;99.90;;;;;;4972674;28;20066;-74
2022/09/08 10:35:27;;;;;;;12.50;8.53;;;17.10;99.90;;;;;;4996053;28;20431;-74
2022/09/08 10:38:17;;;;;;;10.57;6.57;;;17.10;99.90;;;;;;4996335;28;20046;-73
2022/09/08 10:40:57;;;;;;;8.87;5.27;;;17.10;99.90;;;;;;4995765;28;20069;-73
2022/09/08 10:43:46;;;;;;;11.10;5.43;;;17.10;99.90;;;;;;4996936;28;20092;-74
2022/09/08 10:46:57;;;;;;;9.70;4.60;;;17.10;99.90;;;;;;4994675;28;20130;-73
2022/09/08 10:49:47;;;;;;;7.77;2.83;;;17.10;99.90;;;;;;4992864;28;20109;-74
2022/09/08 10:52:33;;;;;;;11.40;4.23;;;17.10;99.90;;;;;;4995283;28;20061;-74
2022/09/08 10:55:16;;;;;;;10.80;3.67;;;17.10;99.90;;;;;;4996244;28;20120;-73
2022/09/08 10:58:13;;;;;;;7.60;3.77;;;17.20;99.90;;;;;;4996640;28;20060;-73
2022/09/08 11:01:06;;;;;;;8.73;4.00;;;17.20;99.90;;;;;;4995684;28;20134;-73
2022/09/08 11:03:44;;;;;;;9.90;3.93;;;17.20;99.90;;;;;;4990684;28;20066;-73
2022/09/08 11:06:51;;;;;;;8.47;4.43;;;17.10;99.90;;;;;;4996229;28;20082;-73
2022/09/08 11:09:41;;;;;;;11.00;5.13;;;17.20;99.90;;;;;;4992251;28;20100;-73
2022/09/08 11:12:12;;;;;;;9.47;4.50;;;17.20;99.90;;;;;;4995719;28;20051;-70
2022/09/08 11:14:53;;;;;;;8.87;5.07;;;17.20;99.90;;;;;;4995544;28;20060;-70
2022/09/08 11:17:24;;;;;;;13.33;5.30;;;17.30;99.90;;;;;;4994420;28;20047;-73
2022/09/08 11:20:15;;;;;;;12.33;6.17;;;17.30;99.90;;;;;;4994358;28;20058;-75
2022/09/08 11:23:07;;;;;;;12.27;5.80;;;17.30;99.90;;;;;;4995548;28;20482;-70
2022/09/08 11:26:08;;;;;;;10.60;5.77;;;17.30;99.90;;;;;;4978802;28;20060;-81
2022/09/08 11:29:09;;;;;;;11.43;6.10;;;17.40;99.90;;;;;;4995634;28;20047;-79
2022/09/08 11:31:43;;;;;;;10.13;5.97;;;17.40;99.90;;;;;;4995291;28;20078;-76
2022/09/08 11:35:03;;;;;;;11.38;6.15;;;17.40;99.90;;;;;;4995549;28;20086;-75
2022/09/08 11:38:14;;;;;;;12.90;7.00;;;17.40;99.90;;;;;;4934978;29;20051;-72
2022/09/08 11:41:07;;;;;;;16.17;8.47;;;17.40;99.90;;;;;;4991127;28;20054;-74
2022/09/08 11:43:42;;;;;;;14.67;8.00;;;17.40;99.90;;;;;;4995052;28;20054;-72
2022/09/08 11:46:08;;;;;;;;;;;17.40;99.90;;;;;;4995744;28;20050;-70
2022/09/08 11:49:02;;;;;;;12.37;6.97;;;17.50;99.90;;;;;;4994981;28;20484;-70
2022/09/08 11:51:58;;;;;;;14.73;8.37;;;17.50;99.90;;;;;;4995094;28;20061;-71
2022/09/08 11:54:39;;;;;;;13.37;7.50;;;17.50;99.90;;;;;;4995101;28;20057;-70
2022/09/08 11:57:19;;;;;;;16.63;8.40;;;17.50;99.90;;;;;;4994840;28;20042;-69
2022/09/08 11:59:57;;;;;;;15.30;9.17;;;17.60;99.90;;;;;;4993837;28;20471;-70
2022/09/08 12:02:42;;;;;;;13.33;8.07;;;17.60;99.90;;;;;;4995020;28;20093;-70
2022/09/08 12:05:45;;;;;;;11.80;8.13;;;17.60;99.90;;;;;;4978262;28;20049;-69
2022/09/08 12:08:44;;;;;;;13.73;8.47;;;17.70;99.90;;;;;;4994667;28;20061;-68
2022/09/08 12:11:13;;;;;;;18.20;10.60;;;17.60;99.90;;;;;;4994931;28;20077;-71
2022/09/08 12:14:04;;;;;;;11.70;8.37;;;17.60;99.90;;;;;;4994528;28;20054;-72
2022/09/08 12:16:49;;;;;;;20.37;9.33;;;17.60;99.90;;;;;;4994549;28;20125;-72
2022/09/08 12:19:23;;;;;;;12.10;8.15;;;17.70;99.90;;;;;;4994985;28;20129;-71
2022/09/08 12:22:07;;;;;;;19.58;10.75;;;17.70;99.90;;;;;;4994900;28;20052;-70
2022/09/08 12:24:45;;;;;;;21.90;11.80;;;17.60;99.90;;;;;;4979323;28;20062;-69
2022/09/08 12:27:14;;;;;;;16.07;10.43;;;17.60;99.90;;;;;;4994909;28;20050;-73
2022/09/08 12:29:55;;;;;;;17.10;9.87;;;17.70;99.90;;;;;;4994499;28;20153;-70
2022/09/08 12:32:35;;;;;;;13.60;8.43;;;17.70;99.90;;;;;;4994645;28;20438;-73
2022/09/08 12:35:04;;;;;;;16.70;9.43;;;17.70;99.90;;;;;;4977829;28;20101;-71
2022/09/08 12:37:39;;;;;;;14.40;9.47;;;17.70;99.90;;;;;;4994252;28;20061;-73
2022/09/08 12:40:17;;;;;;;15.80;10.15;;;17.70;99.90;;;;;;4994273;28;20054;-72
2022/09/08 12:43:18;;;;;;;14.43;10.20;;;17.70;99.90;;;;;;4994807;28;20050;-73
2022/09/08 12:46:05;;;;;;;18.40;10.97;;;17.70;99.90;;;;;;4993996;28;20039;-73
2022/09/08 12:49:07;;;;;;;16.50;10.97;;;17.80;99.90;;;;;;4994928;28;20046;-74
2022/09/08 12:51:38;;;;;;;14.53;10.30;;;17.80;99.90;;;;;;4994448;28;20058;-73
2022/09/08 12:54:23;;;;;;;16.30;11.23;;;17.80;99.90;;;;;;4993943;28;20466;-78
2022/09/08 12:56:51;;;;;;;13.20;9.33;;;17.80;99.90;;;;;;4993614;28;20066;-73
2022/09/08 12:59:26;;;;;;;14.30;11.40;;;17.80;99.90;;;;;;4994319;28;20076;-73
2022/09/08 13:02:16;;;;;;;15.00;11.85;;;17.80;99.90;;;;;;4994165;28;20054;-73
2022/09/08 13:05:27;;;;;;;15.97;10.87;;;17.80;99.90;;;;;;4997279;28;20137;-73
2022/09/08 13:08:05;;;;;;;18.83;12.33;;;17.90;99.90;;;;;;4992662;28;20332;-78
2022/09/08 13:10:44;;;;;;;14.10;10.40;;;17.90;99.90;;;;;;4997742;28;20054;-77
2022/09/08 13:13:34;;;;;;;20.63;13.20;;;18.00;99.90;;;;;;4997754;28;20054;-73
2022/09/08 13:16:28;;;;;;;20.90;13.47;;;18.10;99.90;;;;;;4997778;28;20239;-74
2022/09/08 13:19:25;;;;;;;14.80;11.53;;;18.20;99.90;;;;;;4997768;28;20050;-75
2022/09/08 13:22:13;;;;;;;18.03;12.50;;;18.30;99.90;;;;;;4997471;28;20120;-74
2022/09/08 13:24:41;;;;;;;19.43;12.83;;;18.30;99.90;;;;;;4996510;28;20137;-76
2022/09/08 13:27:23;;;;;;;21.63;15.40;;;18.30;99.90;;;;;;4995675;28;20101;-76